Time;durP1;ratioP1;P1;durP2;ratioP2;P2;SDS_P1;SDS_P2;PMS_P1;PMS_P2;Temp;Humidity;BMP_temperature;BMP_pressure;BME280_temperature;BME280_humidity;BME280_pressure;Samples;Min_cycle;Max_cycle;Signal;HPM_P1;HPM_P2
2021/05/29 00:00:00;;;;;;;6.75;3.03;;;;;;;7.49;74.89;91124.81;4952668;29;20032;-83
2021/05/29 00:02:26;;;;;;;4.93;2.58;;;;;;;7.43;75.08;91123.41;4952567;29;20032;-85
2021/05/29 00:04:51;;;;;;;4.47;2.20;;;;;;;7.43;74.80;91131.19;4940593;29;20019;-85
2021/05/29 00:07:17;;;;;;;3.63;2.42;;;;;;;7.36;74.85;91125.69;4972341;28;20034;-85
2021/05/29 00:09:42;;;;;;;4.60;2.03;;;;;;;7.40;75.17;91121.44;4939946;29;20481;-85
2021/05/29 00:12:08;;;;;;;3.28;1.85;;;;;;;7.43;74.46;91123.41;4939363;29;20042;-85
2021/05/29 00:14:36;;;;;;;4.65;2.10;;;;;;;7.44;74.63;91122.34;4955420;28;20114;-85
2021/05/29 00:17:02;;;;;;;3.88;2.03;;;;;;;7.42;74.61;91117.47;4939798;29;20026;-84
2021/05/29 00:19:27;;;;;;;2.92;2.20;;;;;;;7.37;75.78;91116.84;4955355;29;20392;-85
2021/05/29 00:21:53;;;;;;;6.00;2.22;;;;;;;7.43;75.26;91120.81;4955865;29;20396;-85
2021/05/29 00:24:18;;;;;;;2.53;2.00;;;;;;;7.45;74.96;91113.50;4955812;28;20429;-85
2021/05/29 00:26:43;;;;;;;3.83;2.00;;;;;;;7.33;75.14;91121.88;4955355;29;20110;-85
2021/05/29 00:29:09;;;;;;;3.38;2.22;;;;;;;7.26;75.50;91116.38;4939420;29;20053;-85
2021/05/29 00:31:34;;;;;;;3.25;2.30;;;;;;;7.26;75.74;91116.38;4939261;29;20019;-85
2021/05/29 00:34:00;;;;;;;4.80;2.40;;;;;;;7.26;75.36;91115.59;4955312;28;20437;-85
2021/05/29 00:36:25;;;;;;;3.78;2.10;;;;;;;7.17;75.42;91103.41;4957604;29;20480;-85
2021/05/29 00:38:50;;;;;;;4.90;2.80;;;;;;;7.18;75.79;91110.09;4939940;29;20054;-84
2021/05/29 00:41:16;;;;;;;4.63;2.30;;;;;;;7.17;76.13;91108.59;4955548;29;20020;-85
2021/05/29 00:43:42;;;;;;;3.85;2.13;;;;;;;7.19;76.07;91105.69;4955289;29;20031;-84
2021/05/29 00:46:08;;;;;;;2.47;1.95;;;;;;;7.25;75.81;91101.88;4938711;29;20497;-85
2021/05/29 00:48:34;;;;;;;4.95;2.30;;;;;;;7.15;76.59;91100.34;4954236;28;20038;-85
2021/05/29 00:50:59;;;;;;;3.63;2.22;;;;;;;7.17;76.41;91098.22;4938701;29;20074;-85
2021/05/29 00:53:28;;;;;;;3.28;2.20;;;;;;;7.17;76.74;91106.00;4955510;29;20027;-84
2021/05/29 00:55:53;;;;;;;4.93;2.10;;;;;;;7.10;76.85;91100.50;4939547;29;20030;-84
2021/05/29 00:58:21;;;;;;;3.47;2.13;;;;;;;7.07;76.57;91103.69;4939062;29;20098;-85
2021/05/29 01:00:46;;;;;;;3.55;2.35;;;;;;;7.09;76.83;91096.34;4938463;29;20066;-85
2021/05/29 01:03:11;;;;;;;3.92;2.50;;;;;;;7.09;76.59;91090.41;4954590;29;20027;-83
2021/05/29 01:05:37;;;;;;;6.45;2.45;;;;;;;7.07;76.94;91106.28;4954582;28;20027;-85
2021/05/29 01:08:03;;;;;;;4.40;2.22;;;;;;;7.10;76.41;91104.88;4954455;28;20413;-84
2021/05/29 01:10:28;;;;;;;3.20;2.00;;;;;;;7.05;76.77;91098.03;4954714;29;20037;-85
2021/05/29 01:12:54;;;;;;;3.65;2.15;;;;;;;7.19;76.20;91101.25;4939521;29;20035;-85
2021/05/29 01:15:20;;;;;;;4.20;1.95;;;;;;;7.04;76.79;91099.09;4954940;28;20023;-85
2021/05/29 01:17:46;;;;;;;4.18;2.28;;;;;;;7.02;77.24;91106.41;4954152;29;20031;-85
2021/05/29 01:20:11;;;;;;;4.95;2.00;;;;;;;7.11;76.76;91102.00;4953964;28;20038;-84
2021/05/29 01:22:41;;;;;;;4.70;2.85;;;;;;;7.00;77.43;91100.78;4970479;28;20027;-85
2021/05/29 01:25:16;;;;;;;3.75;2.10;;;;;;;7.05;77.31;91107.63;4970258;28;20023;-84
2021/05/29 01:27:43;;;;;;;3.90;2.65;;;;;;;7.02;77.11;91109.00;4938906;29;20397;-85
2021/05/29 01:30:09;;;;;;;2.83;2.10;;;;;;;6.93;77.24;91108.97;4954386;28;20020;-84
2021/05/29 01:32:35;;;;;;;4.05;2.38;;;;;;;6.93;77.57;91103.03;4938368;29;20110;-85
2021/05/29 01:35:01;;;;;;;4.05;2.22;;;;;;;6.86;77.67;91108.66;4954196;28;20024;-84
2021/05/29 01:37:28;;;;;;;3.30;2.00;;;;;;;6.92;77.73;91106.66;4937927;29;20031;-85
2021/05/29 01:39:54;;;;;;;4.90;2.28;;;;;;;6.94;77.53;91109.75;4937559;29;20110;-85
2021/05/29 01:42:20;;;;;;;4.68;2.15;;;;;;;6.86;77.86;91100.13;4937244;29;20038;-85
2021/05/29 01:44:45;;;;;;;3.55;2.30;;;;;;;6.92;77.48;91106.66;4938362;29;20373;-84
2021/05/29 01:47:11;;;;;;;4.03;3.08;;;;;;;6.86;77.61;91108.66;4938594;29;20481;-84
2021/05/29 01:49:36;;;;;;;3.97;2.00;;;;;;;6.86;77.86;91107.88;4954193;29;20378;-85
2021/05/29 01:52:02;;;;;;;2.75;2.22;;;;;;;6.92;77.50;91107.44;4953966;28;20027;-84
2021/05/29 01:54:27;;;;;;;4.53;2.22;;;;;;;6.94;77.37;91112.31;4969470;28;20027;-85
2021/05/29 01:56:54;;;;;;;3.58;2.50;;;;;;;6.89;77.61;91115.03;4953733;29;20034;-85
2021/05/29 01:59:19;;;;;;;4.03;2.00;;;;;;;6.88;77.52;91111.69;4937674;28;20489;-85
2021/05/29 02:01:44;;;;;;;2.50;1.85;;;;;;;6.77;78.14;91097.47;4953634;29;20023;-85
2021/05/29 02:04:10;;;;;;;3.60;1.88;;;;;;;6.73;78.23;91088.03;4953825;28;20024;-83
2021/05/29 02:06:35;;;;;;;6.28;2.03;;;;;;;6.73;78.03;91093.22;4937807;29;20031;-88
2021/05/29 02:09:01;;;;;;;4.43;2.75;;;;;;;6.81;77.93;91084.69;4937163;29;20482;-85
2021/05/29 02:11:26;;;;;;;2.28;1.83;;;;;;;6.75;77.87;91091.84;4937134;29;20027;-85
2021/05/29 02:13:51;;;;;;;5.07;2.10;;;;;;;6.70;78.16;91095.31;4953381;29;20023;-85
2021/05/29 02:16:17;;;;;;;3.28;2.30;;;;;;;6.66;78.72;91099.56;4945380;23;20423;-86
2021/05/29 02:18:42;;;;;;;3.70;2.20;;;;;;;6.62;78.58;91093.47;4933796;29;20031;-85
2021/05/29 02:21:12;;;;;;;4.40;2.40;;;;;;;6.62;78.38;91092.72;4917734;29;20019;-86
2021/05/29 02:23:39;;;;;;;4.32;2.60;;;;;;;6.69;78.26;91082.69;4917409;29;20034;-87
2021/05/29 02:26:06;;;;;;;3.75;2.33;;;;;;;6.68;78.54;91081.16;4949465;28;20024;-86
2021/05/29 02:28:33;;;;;;;3.58;2.30;;;;;;;6.67;78.16;91074.44;4933854;29;20032;-86
2021/05/29 02:30:59;;;;;;;3.25;2.15;;;;;;;6.72;78.00;91076.16;4949481;29;20094;-86
2021/05/29 02:33:24;;;;;;;3.38;2.40;;;;;;;6.64;78.28;91081.00;4917366;29;20478;-86
2021/05/29 02:35:49;;;;;;;2.35;2.00;;;;;;;6.58;78.59;91079.59;4916822;29;20028;-86
2021/05/29 02:38:15;;;;;;;3.70;2.08;;;;;;;6.55;78.55;91082.03;4901528;29;20032;-86
2021/05/29 02:40:41;;;;;;;5.28;2.33;;;;;;;6.56;78.62;91086.88;4945918;29;20035;-85
2021/05/29 02:43:06;;;;;;;4.50;2.13;;;;;;;6.53;78.29;91087.47;4930348;29;20032;-86
2021/05/29 02:45:31;;;;;;;4.10;2.13;;;;;;;6.43;78.97;91090.31;4946476;28;20024;-86
2021/05/29 02:47:57;;;;;;;3.67;1.88;;;;;;;6.51;78.56;91081.84;4914489;29;20028;-86
2021/05/29 02:50:23;;;;;;;2.95;2.17;;;;;;;6.41;78.26;91072.50;4929995;29;20028;-86
2021/05/29 02:52:48;;;;;;;11.93;2.67;;;;;;;6.38;79.05;91088.63;4914569;29;20031;-86
2021/05/29 02:55:21;;;;;;;2.78;2.20;;;;;;;6.44;79.24;91084.09;4930222;29;20483;-86
2021/05/29 02:57:46;;;;;;;7.25;2.10;;;;;;;6.38;79.45;91087.88;4945228;29;20036;-88
2021/05/29 03:00:12;;;;;;;3.13;2.13;;;;;;;6.42;79.08;91088.81;4954969;29;20039;-87
2021/05/29 03:02:38;;;;;;;2.67;2.00;;;;;;;6.39;79.07;91082.41;4919499;29;20058;-86
2021/05/29 03:05:04;;;;;;;6.55;2.08;;;;;;;6.36;79.12;91070.06;4939342;29;20563;-86
2021/05/29 03:07:30;;;;;;;3.50;2.30;;;;;;;6.34;79.69;91076.59;4924669;29;20457;-86
2021/05/29 03:09:55;;;;;;;3.17;2.10;;;;;;;6.32;79.13;91069.13;4940455;29;20028;-86
2021/05/29 03:12:21;;;;;;;2.30;1.85;;;;;;;6.22;79.51;91064.97;4928881;29;20031;-87
2021/05/29 03:14:46;;;;;;;2.70;2.10;;;;;;;6.16;79.82;91070.56;4947322;29;20023;-87
2021/05/29 03:17:11;;;;;;;5.10;2.28;;;;;;;6.15;79.74;91075.00;4947610;29;20031;-87
2021/05/29 03:19:37;;;;;;;2.90;2.17;;;;;;;6.14;79.79;91078.63;4947947;29;20031;-87
2021/05/29 03:22:02;;;;;;;3.30;2.20;;;;;;;6.14;79.92;91085.63;4931323;29;20302;-88
2021/05/29 03:24:28;;;;;;;2.72;2.03;;;;;;;6.14;79.93;91083.03;4947930;29;20028;-87
2021/05/29 03:26:53;;;;;;;3.92;2.10;;;;;;;6.12;79.69;91085.16;4932468;29;20421;-86
2021/05/29 03:29:19;;;;;;;3.33;2.30;;;;;;;6.10;79.85;91082.84;4948790;29;20027;-87
2021/05/29 03:31:44;;;;;;;2.50;2.05;;;;;;;6.18;79.58;91087.34;4948266;29;20053;-87
2021/05/29 03:34:10;;;;;;;3.22;2.00;;;;;;;6.14;79.51;91083.78;4949258;29;20030;-87
2021/05/29 03:36:35;;;;;;;3.67;2.20;;;;;;;6.16;79.11;91084.28;4949426;29;20027;-88
2021/05/29 03:39:01;;;;;;;4.53;2.33;;;;;;;6.13;79.50;91091.84;4933794;29;20015;-88
2021/05/29 03:41:26;;;;;;;3.17;2.28;;;;;;;6.12;79.66;91085.94;4949151;29;20477;-86
2021/05/29 03:43:52;;;;;;;4.28;2.20;;;;;;;6.14;79.36;91099.31;4949480;29;20037;-87
2021/05/29 03:46:17;;;;;;;2.83;2.25;;;;;;;6.15;79.51;91094.94;4971699;28;20015;-87
2021/05/29 03:48:42;;;;;;;2.80;2.00;;;;;;;6.13;79.59;91099.63;4980529;28;20016;-87
2021/05/29 03:51:08;;;;;;;3.25;1.85;;;;;;;6.10;79.37;91100.97;4957931;29;20035;-86
2021/05/29 03:53:33;;;;;;;2.65;2.13;;;;;;;6.20;79.24;91108.50;4938822;29;20054;-86
2021/05/29 03:55:59;;;;;;;3.95;2.10;;;;;;;6.16;79.11;91102.38;4955054;28;20028;-86
2021/05/29 03:58:24;;;;;;;3.85;2.03;;;;;;;6.16;79.13;91102.38;4938910;29;20039;-86
2021/05/29 04:00:50;;;;;;;5.28;2.03;;;;;;;6.06;79.65;91099.28;4922670;29;20027;-86
2021/05/29 04:03:15;;;;;;;2.40;1.98;;;;;;;6.13;79.86;91097.78;4954838;29;20027;-86
2021/05/29 04:05:40;;;;;;;4.55;2.20;;;;;;;6.12;79.98;91101.44;4938852;29;20031;-84
2021/05/29 04:08:06;;;;;;;2.50;1.90;;;;;;;6.10;79.88;91097.63;4922842;29;20023;-86
2021/05/29 04:10:33;;;;;;;2.38;1.85;;;;;;;6.06;80.50;91105.22;4922740;29;20082;-87
2021/05/29 04:12:58;;;;;;;2.70;2.08;;;;;;;6.14;80.35;91112.25;4907543;29;20558;-86
2021/05/29 04:15:24;;;;;;;2.75;2.30;;;;;;;6.10;80.08;91097.63;4922781;29;20057;-86
2021/05/29 04:17:49;;;;;;;4.07;2.78;;;;;;;6.15;80.42;91100.88;4907057;29;20039;-86
2021/05/29 04:20:16;;;;;;;4.22;2.47;;;;;;;6.11;80.46;91099.94;4906636;29;20019;-86
2021/05/29 04:22:42;;;;;;;3.55;2.20;;;;;;;6.10;80.35;91106.16;4906650;29;20028;-86
2021/05/29 04:25:10;;;;;;;4.22;2.22;;;;;;;6.11;80.08;91099.94;4904122;29;20509;-86
2021/05/29 04:27:36;;;;;;;3.53;2.28;;;;;;;6.13;79.90;91102.22;4919993;29;20031;-86
2021/05/29 04:30:03;;;;;;;2.80;2.22;;;;;;;6.16;80.09;91107.56;4903904;29;20024;-86
2021/05/29 04:32:28;;;;;;;2.70;2.20;;;;;;;6.20;79.91;91107.72;4919702;29;20030;-86
2021/05/29 04:34:54;;;;;;;3.22;2.38;;;;;;;6.28;79.94;91101.84;4935311;29;20031;-86
2021/05/29 04:37:19;;;;;;;3.40;2.20;;;;;;;6.29;79.98;91105.19;4919680;29;20071;-86
2021/05/29 04:39:45;;;;;;;3.53;2.10;;;;;;;6.38;79.60;91104.16;4903802;29;20028;-86
2021/05/29 04:42:11;;;;;;;2.45;2.03;;;;;;;6.43;78.96;91113.63;4903300;29;20027;-85
2021/05/29 04:44:36;;;;;;;3.35;2.20;;;;;;;6.42;79.15;91109.53;4903897;29;20039;-86
2021/05/29 04:47:02;;;;;;;5.30;2.38;;;;;;;6.41;79.91;91118.34;4903957;29;20023;-85
2021/05/29 04:49:29;;;;;;;4.30;2.53;;;;;;;6.45;79.10;91122.63;4919338;29;20071;-86
2021/05/29 04:51:54;;;;;;;5.88;2.22;;;;;;;6.50;78.80;91115.78;4903621;29;20023;-86
2021/05/29 04:54:20;;;;;;;4.80;2.40;;;;;;;6.63;78.21;91115.72;4903507;29;20119;-86
2021/05/29 04:56:45;;;;;;;3.55;2.35;;;;;;;6.61;79.07;91114.50;4919444;29;20064;-86
2021/05/29 04:59:10;;;;;;;2.65;2.20;;;;;;;6.78;78.92;91122.31;4903474;29;20027;-86
2021/05/29 05:01:36;;;;;;;2.70;2.10;;;;;;;6.78;77.82;91113.78;4935209;29;20023;-86
2021/05/29 05:04:01;;;;;;;2.25;2.05;;;;;;;6.83;77.42;91108.47;4912073;29;20028;-86
2021/05/29 05:06:27;;;;;;;3.58;2.03;;;;;;;6.91;77.33;91120.69;4885205;29;20482;-86
2021/05/29 05:08:53;;;;;;;3.10;2.20;;;;;;;6.89;77.70;91113.22;4885352;29;20402;-86
2021/05/29 05:11:18;;;;;;;2.78;1.80;;;;;;;6.92;77.94;91119.63;4884421;29;20035;-86
2021/05/29 05:13:44;;;;;;;3.28;2.25;;;;;;;6.97;78.55;91119.50;4884711;29;20032;-86
2021/05/29 05:16:09;;;;;;;2.40;2.10;;;;;;;6.99;78.16;91114.78;4900360;29;20032;-87
2021/05/29 05:18:35;;;;;;;4.78;1.88;;;;;;;6.99;78.37;91119.19;4885692;29;20032;-87
2021/05/29 05:21:00;;;;;;;2.88;2.28;;;;;;;7.04;77.98;91116.47;4886080;29;20035;-86
2021/05/29 05:23:25;;;;;;;4.30;2.72;;;;;;;7.12;78.88;91118.31;4902621;29;20040;-86
2021/05/29 05:25:52;;;;;;;3.33;2.30;;;;;;;7.21;78.80;91129.47;4934419;29;20027;-86
2021/05/29 05:28:17;;;;;;;3.88;2.70;;;;;;;7.28;77.33;91134.19;4934796;29;20031;-86
2021/05/29 05:30:42;;;;;;;4.05;2.85;;;;;;;7.33;77.02;91134.06;4950523;29;20071;-86
2021/05/29 05:33:08;;;;;;;4.55;3.10;;;;;;;7.50;76.67;91136.69;4934729;29;20070;-86
2021/05/29 05:35:34;;;;;;;5.32;2.80;;;;;;;7.53;76.88;91143.88;4934057;29;20478;-86
2021/05/29 05:37:59;;;;;;;3.97;3.47;;;;;;;7.55;73.81;91149.50;4934313;29;20038;-87
2021/05/29 05:40:25;;;;;;;5.38;3.33;;;;;;;7.57;74.08;91139.59;4950199;29;20024;-86
2021/05/29 05:42:50;;;;;;;3.55;2.80;;;;;;;7.69;75.94;91146.78;4934442;29;20035;-86
2021/05/29 05:45:16;;;;;;;4.43;3.17;;;;;;;7.75;77.33;91147.41;4934528;29;20046;-86
2021/05/29 05:47:42;;;;;;;3.95;3.20;;;;;;;7.79;75.87;91149.09;4934503;29;20029;-85
2021/05/29 05:50:09;;;;;;;6.35;3.30;;;;;;;7.88;75.98;91151.69;4934747;29;20020;-85
2021/05/29 05:52:35;;;;;;;5.00;3.80;;;;;;;7.89;75.01;91148.03;4919258;29;20087;-86
2021/05/29 05:55:01;;;;;;;6.90;3.60;;;;;;;7.89;74.49;91148.03;4934730;29;20020;-86
2021/05/29 05:57:26;;;;;;;6.00;3.58;;;;;;;7.98;72.40;91150.63;4918940;29;20034;-86
2021/05/29 05:59:52;;;;;;;4.82;3.80;;;;;;;8.15;72.91;91153.19;4934760;29;20031;-86
2021/05/29 06:02:17;;;;;;;4.65;3.53;;;;;;;8.30;72.23;91159.75;4934297;29;20027;-86
2021/05/29 06:04:43;;;;;;;5.90;3.38;;;;;;;8.24;71.98;91166.94;4932409;29;20028;-86
2021/05/29 06:07:08;;;;;;;6.68;3.35;;;;;;;8.26;73.03;91158.84;4900027;29;20044;-86
2021/05/29 06:09:34;;;;;;;5.82;3.53;;;;;;;8.44;72.26;91162.22;4931360;29;20024;-86
2021/05/29 06:11:59;;;;;;;4.90;3.40;;;;;;;8.46;72.26;91160.06;4915308;29;20486;-86
2021/05/29 06:19:54;;;;;;;4.10;3.20;;;;;;;8.66;71.08;91169.81;4928911;29;20096;-86
2021/05/29 06:22:19;;;;;;;6.13;3.50;;;;;;;8.76;71.88;91164.31;4914991;29;20334;-86
2021/05/29 06:24:45;;;;;;;4.45;2.95;;;;;;;8.79;70.30;91162.91;4931198;29;20451;-86
2021/05/29 06:27:10;;;;;;;5.32;3.60;;;;;;;8.91;68.04;91170.81;4947057;29;20035;-86
2021/05/29 06:29:35;;;;;;;4.00;3.25;;;;;;;8.92;68.67;91172.34;4931388;29;20028;-86
2021/05/29 06:32:01;;;;;;;5.13;3.28;;;;;;;9.07;68.67;91176.25;4930829;29;20028;-86
2021/05/29 06:34:26;;;;;;;4.28;3.33;;;;;;;9.00;68.66;91181.94;4948879;29;20019;-86
2021/05/29 06:36:52;;;;;;;6.10;3.28;;;;;;;8.95;67.75;91187.31;4934009;29;20523;-86
2021/05/29 06:39:17;;;;;;;4.30;3.10;;;;;;;8.87;68.80;91190.72;4954908;29;20038;-87
2021/05/29 06:41:43;;;;;;;4.65;3.28;;;;;;;8.96;68.60;91194.03;4939263;29;20379;-86
2021/05/29 06:44:09;;;;;;;5.00;3.40;;;;;;;9.14;67.79;91199.19;4939434;29;20031;-87
2021/05/29 06:46:34;;;;;;;6.25;3.20;;;;;;;9.21;68.20;91189.81;4921821;29;20027;-86
2021/05/29 06:49:01;;;;;;;5.15;3.38;;;;;;;9.28;67.79;91199.75;4921105;29;20099;-88
2021/05/29 06:51:38;;;;;;;3.60;3.10;;;;;;;9.36;66.61;91205.97;4920678;29;20426;-87
2021/05/29 06:54:19;;;;;;;4.50;3.05;;;;;;;9.44;66.95;91207.81;4921473;29;20031;-87
2021/05/29 06:59:29;;;;;;;4.80;3.13;;;;;;;9.43;66.80;91217.41;4951401;29;20066;-87
2021/05/29 07:01:54;;;;;;;4.60;3.17;;;;;;;9.58;67.28;91216.91;4905958;29;20035;-88
2021/05/29 07:04:20;;;;;;;6.43;3.30;;;;;;;9.46;66.90;91222.00;4930311;29;20027;-86
2021/05/29 07:06:45;;;;;;;5.60;3.30;;;;;;;9.50;66.25;91227.34;4921566;29;20023;-87
2021/05/29 07:09:12;;;;;;;4.32;2.95;;;;;;;9.63;66.71;91230.81;4896280;29;20031;-89
2021/05/29 07:11:40;;;;;;;5.88;2.70;;;;;;;9.70;65.73;91229.22;4938517;29;20037;-86
2021/05/29 07:14:05;;;;;;;3.67;2.75;;;;;;;9.86;65.12;91223.47;4938683;29;20114;-88
2021/05/29 07:16:34;;;;;;;5.53;2.60;;;;;;;9.98;65.74;91220.97;4918650;29;20036;-88
2021/05/29 07:18:59;;;;;;;4.18;2.67;;;;;;;9.92;66.23;91212.56;4908741;29;20027;-87
2021/05/29 07:21:25;;;;;;;3.10;2.30;;;;;;;10.27;64.23;91222.78;4905939;29;20024;-86
2021/05/29 07:23:50;;;;;;;4.82;2.50;;;;;;;10.35;64.79;91221.94;4937891;29;20032;-86
2021/05/29 07:26:15;;;;;;;4.97;2.30;;;;;;;10.41;62.68;91212.88;4937877;29;20426;-87
2021/05/29 07:28:41;;;;;;;2.78;2.45;;;;;;;10.51;63.87;91214.34;4922211;29;20038;-86
2021/05/29 07:31:06;;;;;;;6.30;2.85;;;;;;;10.43;62.98;91223.75;4921963;29;20083;-87
2021/05/29 07:33:32;;;;;;;4.47;2.83;;;;;;;10.32;61.88;91220.00;4955823;29;20016;-90
2021/05/29 07:35:58;;;;;;;6.20;3.40;;;;;;;10.38;63.52;91213.50;4959431;29;20023;-89
2021/05/29 07:38:24;;;;;;;4.65;3.10;;;;;;;10.58;60.71;91208.59;4960833;28;20078;-85
2021/05/29 07:40:49;;;;;;;6.40;3.15;;;;;;;10.78;62.93;91210.41;4933166;29;20442;-86
2021/05/29 07:43:15;;;;;;;6.22;2.63;;;;;;;10.72;59.90;91211.69;4933713;29;20035;-86
2021/05/29 07:45:40;;;;;;;4.28;3.03;;;;;;;10.73;59.52;91215.81;4933661;29;20035;-85
2021/05/29 07:48:08;;;;;;;4.97;3.33;;;;;;;10.66;60.54;91215.56;4918108;29;20650;-88
2021/05/29 07:50:33;;;;;;;4.38;3.30;;;;;;;10.33;60.98;91221.53;4914993;29;20103;-85
2021/05/29 07:53:01;;;;;;;6.57;3.20;;;;;;;10.11;60.25;91214.00;4947389;29;20518;-84
2021/05/29 07:55:27;;;;;;;6.28;3.05;;;;;;;10.21;61.74;91218.81;4932747;29;20182;-87
2021/05/29 07:57:52;;;;;;;4.35;3.03;;;;;;;10.48;60.34;91218.31;4934028;29;20027;-85
2021/05/29 08:00:23;;;;;;;5.63;3.10;;;;;;;10.59;61.88;91221.31;4927821;29;20032;-85
2021/05/29 08:02:48;;;;;;;5.13;3.40;;;;;;;10.69;59.66;91218.31;4924165;29;20047;-84
2021/05/29 08:05:19;;;;;;;4.50;2.80;;;;;;;10.96;62.26;91219.59;4903978;29;20032;-85
2021/05/29 08:07:44;;;;;;;5.72;2.72;;;;;;;10.83;59.95;91223.25;4903394;29;20376;-85
2021/05/29 08:10:10;;;;;;;6.25;3.22;;;;;;;11.08;60.51;91218.09;4885542;29;20023;-84
2021/05/29 08:12:36;;;;;;;5.82;3.70;;;;;;;10.93;59.11;91215.03;4902216;29;20401;-84
2021/05/29 08:17:32;;;;;;;4.97;3.33;;;;;;;11.12;59.91;91218.97;5011951;23;20111;-85
2021/05/29 08:19:57;;;;;;;5.68;3.80;;;;;;;11.27;58.21;91215.72;4907527;29;20454;-86
2021/05/29 08:22:23;;;;;;;6.40;3.75;;;;;;;11.18;55.68;91212.47;4955467;29;20038;-86
2021/05/29 08:24:48;;;;;;;5.60;3.45;;;;;;;11.32;58.47;91218.13;4924887;29;20031;-87
2021/05/29 08:27:14;;;;;;;6.53;3.13;;;;;;;11.33;58.82;91213.69;4955677;29;20019;-87
2021/05/29 08:29:39;;;;;;;6.10;2.85;;;;;;;11.23;56.02;91215.59;4939797;29;20027;-88
2021/05/29 08:32:05;;;;;;;5.43;3.00;;;;;;;11.45;56.47;91218.94;4923278;29;20502;-87
2021/05/29 08:34:30;;;;;;;4.05;2.55;;;;;;;11.57;58.34;91218.91;4923394;29;20133;-88
2021/05/29 08:36:56;;;;;;;5.25;3.15;;;;;;;11.75;57.12;91211.63;4939030;29;20027;-86
2021/05/29 08:39:21;;;;;;;4.50;2.80;;;;;;;12.09;56.71;91218.28;4923236;29;20082;-87
2021/05/29 08:41:46;;;;;;;3.38;2.65;;;;;;;12.44;54.91;91223.00;4922992;29;20023;-88
2021/05/29 08:44:12;;;;;;;3.97;2.35;;;;;;;12.29;53.17;91221.81;4939024;29;20520;-88
2021/05/29 08:46:38;;;;;;;3.47;2.40;;;;;;;12.34;52.37;91229.44;4923174;29;20031;-87
2021/05/29 08:49:03;;;;;;;4.03;2.30;;;;;;;12.39;55.69;91221.34;4923154;29;20023;-86
2021/05/29 08:51:29;;;;;;;3.50;2.30;;;;;;;12.62;54.64;91223.47;4923357;29;20536;-86
2021/05/29 08:53:58;;;;;;;7.13;3.10;;;;;;;12.46;55.15;91214.81;4938715;29;20034;-87
2021/05/29 08:56:25;;;;;;;4.45;2.35;;;;;;;12.54;53.38;91212.03;4923742;29;20117;-86
2021/05/29 08:58:51;;;;;;;4.75;2.80;;;;;;;12.54;55.95;91212.03;4919544;29;20050;-87
2021/05/29 09:01:17;;;;;;;3.55;2.20;;;;;;;12.60;55.49;91212.59;4918937;29;20404;-86
2021/05/29 09:03:52;;;;;;;3.33;2.10;;;;;;;12.94;55.60;91208.63;4940662;29;20019;-86
2021/05/29 09:06:27;;;;;;;5.00;2.13;;;;;;;12.86;53.44;91206.91;4923131;29;20031;-88
2021/05/29 09:08:59;;;;;;;4.82;2.60;;;;;;;12.88;52.96;91210.72;4969503;28;20023;-88
2021/05/29 09:11:51;;;;;;;3.45;2.33;;;;;;;13.05;53.18;91214.13;4953397;29;20074;-88
2021/05/29 09:17:04;;;;;;;;;;;;;;;13.31;52.27;91206.59;4955617;29;20051;-88
2021/05/29 09:19:49;;;;;;;3.63;2.03;;;;;;;13.11;51.58;91203.09;4970097;28;19974;-88
2021/05/29 09:22:14;;;;;;;3.78;2.40;;;;;;;13.17;53.63;91211.44;4951008;29;20034;-86
2021/05/29 09:24:40;;;;;;;4.05;2.40;;;;;;;13.33;53.15;91206.28;4954243;29;20606;-86
2021/05/29 09:27:08;;;;;;;3.83;2.13;;;;;;;13.74;53.46;91210.22;4953555;29;20027;-87
2021/05/29 09:29:33;;;;;;;7.35;2.80;;;;;;;13.97;52.54;91210.38;4955738;29;20116;-86
2021/05/29 09:32:02;;;;;;;4.82;2.78;;;;;;;14.05;52.67;91213.91;4954600;29;20059;-85
2021/05/29 09:34:37;;;;;;;3.08;2.10;;;;;;;14.05;51.24;91212.03;4921590;29;20549;-88
2021/05/29 09:37:08;;;;;;;4.38;2.25;;;;;;;14.11;51.39;91220.41;4922199;29;20037;-86
2021/05/29 09:39:35;;;;;;;3.05;2.05;;;;;;;14.10;49.13;91224.13;4953503;29;20027;-90
2021/05/29 09:42:00;;;;;;;4.65;2.40;;;;;;;13.82;51.17;91221.63;4937606;29;20031;-87
2021/05/29 09:44:27;;;;;;;4.95;2.03;;;;;;;13.98;50.72;91226.84;4953263;29;20561;-89
2021/05/29 09:46:57;;;;;;;2.90;1.95;;;;;;;13.78;49.91;91233.88;4953344;29;20081;-89
2021/05/29 09:49:52;;;;;;;3.08;1.90;;;;;;;13.98;52.41;91232.09;4937015;29;20516;-87
2021/05/29 09:52:26;;;;;;;;;;;;;;;13.93;50.76;91224.50;4937506;29;20039;-87
2021/05/29 09:54:52;;;;;;;3.95;1.42;;;;;;;14.14;48.93;91224.22;4954784;29;19911;-87
2021/05/29 09:57:18;;;;;;;2.92;1.90;;;;;;;14.00;48.23;91228.03;4953571;29;20081;-87
2021/05/29 10:00:00;;;;;;;2.75;2.17;;;;;;;14.27;49.59;91233.47;4953818;29;20564;-86
2021/05/29 10:02:25;;;;;;;3.05;1.70;;;;;;;14.29;49.00;91234.66;4953129;29;20034;-88
2021/05/29 10:04:55;;;;;;;2.15;1.42;;;;;;;14.52;47.86;91239.25;4953285;29;20034;-88
2021/05/29 10:07:22;;;;;;;2.20;1.50;;;;;;;14.61;50.29;91229.34;4937580;29;20039;-89
2021/05/29 10:09:47;;;;;;;2.13;1.58;;;;;;;14.75;48.03;91242.72;4938014;29;20023;-88
2021/05/29 10:12:13;;;;;;;2.53;1.80;;;;;;;14.79;44.31;91233.06;4952704;29;20019;-88
2021/05/29 10:14:38;;;;;;;3.35;1.60;;;;;;;14.45;43.56;91225.97;4937043;29;20027;-88
2021/05/29 10:17:12;;;;;;;2.55;1.30;;;;;;;14.35;49.33;91224.66;4937249;29;20027;-87
2021/05/29 10:19:41;;;;;;;2.17;1.40;;;;;;;14.41;47.93;91230.38;4937889;29;20027;-89
2021/05/29 10:22:11;;;;;;;4.88;1.63;;;;;;;14.49;46.19;91235.44;4936943;29;20023;-88
2021/05/29 10:24:37;;;;;;;1.65;1.20;;;;;;;14.48;46.50;91233.91;4937146;29;20034;-88
2021/05/29 10:27:06;;;;;;;1.90;1.17;;;;;;;14.52;48.14;91229.53;4937078;29;20023;-89
2021/05/29 10:29:32;;;;;;;3.10;1.20;;;;;;;14.99;48.62;91233.81;4937390;29;20019;-87
2021/05/29 10:32:15;;;;;;;2.50;1.20;;;;;;;14.78;46.46;91231.56;4937135;29;20059;-89
2021/05/29 10:35:00;;;;;;;1.88;1.23;;;;;;;14.79;46.51;91233.06;4906013;29;20027;-87
2021/05/29 10:37:31;;;;;;;2.03;1.23;;;;;;;14.68;46.38;91229.47;4936442;29;20383;-88
2021/05/29 10:40:15;;;;;;;3.05;1.30;;;;;;;14.46;45.62;91230.13;4937587;29;20027;-88
2021/05/29 10:42:41;;;;;;;1.58;1.00;;;;;;;14.54;46.88;91235.19;4938321;29;20031;-85
2021/05/29 10:45:17;;;;;;;3.08;1.20;;;;;;;14.39;47.00;91245.72;4937252;29;20027;-86
2021/05/29 10:48:14;;;;;;;1.67;1.08;;;;;;;14.52;44.30;91234.78;4936702;29;20441;-87
2021/05/29 10:53:48;;;;;;;2.38;1.10;;;;;;;14.49;45.23;91232.81;4953618;29;20039;-90
2021/05/29 10:56:17;;;;;;;1.63;0.90;;;;;;;14.52;44.27;91234.78;4921251;29;20501;-89
2021/05/29 10:58:54;;;;;;;1.95;1.20;;;;;;;14.27;47.14;91243.94;4968100;28;20039;-87
2021/05/29 11:01:27;;;;;;;1.58;1.20;;;;;;;14.13;45.19;91244.38;4953667;28;20035;-88
2021/05/29 11:04:11;;;;;;;1.73;1.30;;;;;;;13.92;46.71;91242.06;4938016;29;20027;-88
2021/05/29 11:06:36;;;;;;;2.03;1.20;;;;;;;14.11;46.14;91238.75;4951652;29;20031;-87
2021/05/29 11:09:02;;;;;;;2.55;1.17;;;;;;;13.94;45.94;91229.38;4920130;29;20098;-89
2021/05/29 11:11:31;;;;;;;1.83;1.00;;;;;;;13.97;47.32;91231.31;4951912;29;20568;-88
2021/05/29 11:14:01;;;;;;;2.22;1.23;;;;;;;14.02;46.14;91232.91;4951887;29;20449;-88
2021/05/29 11:16:46;;;;;;;2.55;1.00;;;;;;;13.98;45.03;91232.09;4919996;29;20034;-89
2021/05/29 11:19:12;;;;;;;1.15;0.80;;;;;;;14.14;47.98;91240.69;4952686;29;20086;-88
2021/05/29 11:21:57;;;;;;;1.83;1.10;;;;;;;14.00;44.00;91235.91;4935463;29;20125;-87
2021/05/29 11:24:23;;;;;;;3.22;1.05;;;;;;;13.98;45.50;91232.84;4951899;29;20065;-90
2021/05/29 11:26:48;;;;;;;2.10;1.10;;;;;;;13.97;46.47;91233.19;4920966;29;20031;-89
2021/05/29 11:29:13;;;;;;;1.88;0.80;;;;;;;13.81;44.47;91233.94;4936390;29;20027;-87
2021/05/29 11:31:43;;;;;;;3.30;1.10;;;;;;;13.73;43.99;91229.66;4920363;29;20027;-90
2021/05/29 11:34:08;;;;;;;2.13;0.70;;;;;;;13.81;43.50;91230.56;4924923;29;20074;-90
2021/05/29 11:36:34;;;;;;;1.60;1.00;;;;;;;13.99;43.83;91233.59;4924164;29;20517;-89
2021/05/29 11:39:26;;;;;;;2.20;1.00;;;;;;;14.52;44.33;91234.78;4924615;29;20411;-89
2021/05/29 11:41:59;;;;;;;2.00;0.80;;;;;;;14.73;41.36;91229.19;4936408;29;20122;-92
2021/05/29 11:44:25;;;;;;;3.15;1.10;;;;;;;15.20;41.35;91227.44;4939867;29;20437;-90
2021/05/29 11:46:50;;;;;;;1.80;1.27;;;;;;;15.26;41.04;91224.19;4939982;29;20489;-92
2021/05/29 11:49:16;;;;;;;1.90;0.80;;;;;;;15.40;41.63;91228.16;4924849;29;20038;-89
2021/05/29 11:51:42;;;;;;;1.83;0.90;;;;;;;15.74;44.96;91224.63;4924191;29;20027;-89
2021/05/29 11:54:15;;;;;;;2.60;0.90;;;;;;;16.02;42.25;91236.69;4923975;29;20393;-86